createdAt,value
2022-07-29T00:01:19.411Z,98507.42
2022-07-29T00:04:22.815Z,98504.69
2022-07-29T00:07:26.208Z,98513.36
2022-07-29T00:10:29.107Z,98508.48
2022-07-29T00:13:32.932Z,98508.73
2022-07-29T00:16:36.395Z,98507.23
2022-07-29T00:19:39.513Z,98507.70
2022-07-29T00:22:45.723Z,98504.55
2022-07-29T00:25:48.651Z,98500.45
2022-07-29T00:28:51.786Z,98494.61
2022-07-29T00:31:54.825Z,98501.33
2022-07-29T00:35:16.430Z,98503.10
2022-07-29T00:38:21.159Z,98497.61
2022-07-29T00:41:24.082Z,98500.05
2022-07-29T00:44:27.212Z,98496.66
2022-07-29T00:47:30.116Z,98494.58
2022-07-29T00:50:34.055Z,98497.03
2022-07-29T00:53:37.425Z,98491.98
2022-07-29T00:56:40.360Z,98491.19
2022-07-29T00:59:43.315Z,98486.29
2022-07-29T01:02:50.603Z,98481.70
2022-07-29T01:05:54.211Z,98482.26
2022-07-29T01:08:57.721Z,98480.73
2022-07-29T01:12:02.350Z,98480.60
2022-07-29T01:15:07.747Z,98477.60
2022-07-29T01:18:25.185Z,98476.75
2022-07-29T01:21:52.691Z,98468.95
2022-07-29T01:25:20.976Z,98469.64
2022-07-29T01:28:45.139Z,98473.89
2022-07-29T01:32:00.636Z,98473.86
2022-07-29T01:35:09.068Z,98472.13
2022-07-29T01:38:18.498Z,98471.00
2022-07-29T01:41:23.213Z,98471.11
2022-07-29T01:44:33.254Z,98473.98
2022-07-29T01:47:42.978Z,98467.92
2022-07-29T01:50:52.985Z,98468.80
2022-07-29T01:54:15.830Z,98465.30
2022-07-29T01:57:22.096Z,98460.82
2022-07-29T02:00:26.986Z,98458.66
2022-07-29T02:03:32.724Z,98456.12
2022-07-29T02:06:39.192Z,98451.98
2022-07-29T02:09:43.773Z,98450.50
2022-07-29T02:12:50.780Z,98448.23
2022-07-29T02:15:55.523Z,98449.79
2022-07-29T02:19:01.708Z,98455.48
2022-07-29T02:22:07.443Z,98457.09
2022-07-29T02:25:14.015Z,98458.10
2022-07-29T02:28:18.534Z,98450.88
2022-07-29T02:31:25.858Z,98450.30
2022-07-29T02:34:30.201Z,98445.60
2022-07-29T02:37:33.501Z,98444.86
2022-07-29T02:40:39.834Z,98439.69
2022-07-29T02:43:45.366Z,98439.33
2022-07-29T02:47:11.506Z,98439.18
2022-07-29T02:50:22.276Z,98433.42
2022-07-29T02:53:27.635Z,98440.05
2022-07-29T02:56:35.956Z,98436.94
2022-07-29T02:59:44.467Z,98434.92
2022-07-29T03:02:53.374Z,98432.84
2022-07-29T03:05:58.756Z,98434.63
2022-07-29T03:09:02.658Z,98432.48
2022-07-29T03:12:06.339Z,98425.95
2022-07-29T03:15:10.927Z,98425.34
2022-07-29T03:18:14.571Z,98417.73
2022-07-29T03:21:17.759Z,98422.20
2022-07-29T03:24:27.429Z,98421.95
2022-07-29T03:27:30.421Z,98418.28
2022-07-29T03:30:33.352Z,98417.95
2022-07-29T03:33:36.773Z,98419.25
2022-07-29T03:36:39.711Z,98422.70
2022-07-29T03:39:45.250Z,98424.02
2022-07-29T03:42:50.927Z,98427.11
2022-07-29T03:45:56.117Z,98428.34
2022-07-29T03:49:02.390Z,98430.29
2022-07-29T03:52:06.293Z,98431.35
2022-07-29T03:55:10.270Z,98431.84
2022-07-29T03:58:15.636Z,98428.93
2022-07-29T04:01:19.656Z,98428.01
2022-07-29T04:04:23.098Z,98437.23
2022-07-29T04:07:26.183Z,98441.85
2022-07-29T04:10:31.883Z,98436.45
2022-07-29T04:13:35.144Z,98436.11
2022-07-29T04:16:38.073Z,98437.35
2022-07-29T04:19:41.000Z,98434.48
2022-07-29T04:22:43.986Z,98432.16
2022-07-29T04:25:47.009Z,98433.45
2022-07-29T04:28:49.917Z,98432.57
2022-07-29T04:31:52.890Z,98431.88
2022-07-29T04:34:55.800Z,98429.49
2022-07-29T04:37:58.695Z,98428.35
2022-07-29T04:41:01.685Z,98427.45
2022-07-29T04:44:07.096Z,98419.43
2022-07-29T04:47:10.476Z,98404.27
2022-07-29T04:50:13.510Z,98404.33
2022-07-29T04:53:17.769Z,98411.58
2022-07-29T04:56:20.720Z,98413.35
2022-07-29T04:59:23.812Z,98412.57
2022-07-29T05:02:26.807Z,98411.54
2022-07-29T05:05:29.801Z,98407.36
2022-07-29T05:08:32.789Z,98402.84
2022-07-29T05:11:35.652Z,98405.20
2022-07-29T05:14:38.572Z,98411.96
2022-07-29T05:17:41.649Z,98415.70
2022-07-29T05:20:44.556Z,98415.90
2022-07-29T05:23:47.484Z,98418.48
2022-07-29T05:26:50.358Z,98417.96
2022-07-29T05:29:53.277Z,98417.25
2022-07-29T05:32:56.163Z,98410.98
2022-07-29T05:36:00.786Z,98407.71
2022-07-29T05:39:04.357Z,98404.44
2022-07-29T05:42:13.389Z,98399.63
2022-07-29T05:45:16.282Z,98396.41
2022-07-29T05:48:19.120Z,98394.24
2022-07-29T05:51:22.056Z,98388.30
2022-07-29T05:54:25.373Z,98387.43
2022-07-29T05:57:28.246Z,98392.02
2022-07-29T06:00:31.290Z,98391.48
2022-07-29T06:03:34.240Z,98391.00
2022-07-29T06:06:37.158Z,98396.34
2022-07-29T06:09:40.256Z,98403.84
2022-07-29T06:12:43.197Z,98405.94
2022-07-29T06:15:46.138Z,98412.05
2022-07-29T06:18:49.488Z,98416.15
2022-07-29T06:21:52.694Z,98417.38
2022-07-29T06:24:56.831Z,98416.59
2022-07-29T06:27:59.940Z,98416.27
2022-07-29T06:31:03.073Z,98420.80
2022-07-29T06:34:06.248Z,98416.80
2022-07-29T06:37:15.662Z,98419.92
2022-07-29T06:40:37.521Z,98417.75
2022-07-29T06:43:50.621Z,98417.15
2022-07-29T06:46:59.468Z,98410.36
2022-07-29T06:50:02.936Z,98413.81
2022-07-29T06:53:11.098Z,98412.80
2022-07-29T06:56:15.034Z,98403.75
2022-07-29T06:59:18.045Z,98404.01
2022-07-29T07:02:21.000Z,98403.04
2022-07-29T07:05:24.054Z,98404.52
2022-07-29T07:08:27.072Z,98405.38
2022-07-29T07:11:30.136Z,98402.73
2022-07-29T07:14:33.074Z,98394.66
2022-07-29T07:17:36.158Z,98392.73
2022-07-29T07:20:39.221Z,98399.64
2022-07-29T07:23:42.254Z,98394.88
2022-07-29T07:26:45.225Z,98394.14
2022-07-29T07:29:48.222Z,98400.77
2022-07-29T07:32:51.350Z,98398.02
2022-07-29T07:35:54.804Z,98406.89
2022-07-29T07:38:57.807Z,98411.94
2022-07-29T07:42:00.755Z,98417.02
2022-07-29T07:45:13.549Z,98411.28
2022-07-29T07:48:19.036Z,98407.17
2022-07-29T07:51:21.976Z,98399.87
2022-07-29T07:54:25.006Z,98396.34
2022-07-29T07:57:28.224Z,98398.83
2022-07-29T08:00:31.390Z,98402.75
2022-07-29T08:03:34.573Z,98402.45
2022-07-29T08:06:37.979Z,98398.08
2022-07-29T08:09:41.065Z,98397.06
2022-07-29T08:12:44.027Z,98407.48
2022-07-29T08:15:47.148Z,98414.42
2022-07-29T08:18:50.127Z,98417.15
2022-07-29T08:21:54.806Z,98413.82
2022-07-29T08:25:00.312Z,98412.39
2022-07-29T08:28:03.452Z,98406.67
2022-07-29T08:31:07.242Z,98408.27
2022-07-29T08:34:10.626Z,98408.35
2022-07-29T08:37:13.857Z,98406.70
2022-07-29T08:40:16.988Z,98412.63
2022-07-29T08:43:20.650Z,98414.41
2022-07-29T08:46:24.227Z,98416.27
2022-07-29T08:49:27.342Z,98413.98
2022-07-29T08:52:33.562Z,98421.62
2022-07-29T08:55:36.617Z,98419.05
2022-07-29T08:58:40.923Z,98417.94
2022-07-29T09:01:47.502Z,98415.13
2022-07-29T09:04:50.949Z,98413.71
2022-07-29T09:07:54.370Z,98407.89
2022-07-29T09:10:57.476Z,98403.35
2022-07-29T09:14:00.507Z,98400.39
2022-07-29T09:17:03.741Z,98399.95
2022-07-29T09:20:13.101Z,98397.51
2022-07-29T09:23:23.398Z,98396.78
2022-07-29T09:26:32.277Z,98404.59
2022-07-29T09:29:36.419Z,98399.92
2022-07-29T09:32:56.686Z,98402.88
2022-07-29T09:36:06.031Z,98396.55
2022-07-29T09:39:09.395Z,98395.64
2022-07-29T09:42:13.348Z,98391.09
2022-07-29T09:45:30.366Z,98395.49
2022-07-29T09:48:33.427Z,98391.16
2022-07-29T09:51:38.546Z,98385.20
2022-07-29T09:54:41.854Z,98376.94
2022-07-29T09:57:45.472Z,98379.06
2022-07-29T10:00:51.015Z,98378.50
2022-07-29T10:03:54.571Z,98371.84
2022-07-29T10:07:05.079Z,98375.48
2022-07-29T10:10:08.883Z,98368.23
2022-07-29T10:13:16.408Z,98362.90
2022-07-29T10:16:19.955Z,98363.06
2022-07-29T10:19:25.886Z,98363.45
2022-07-29T10:22:51.858Z,98363.52
2022-07-29T10:25:57.833Z,98364.81
2022-07-29T10:29:01.663Z,98357.13
2022-07-29T10:32:21.302Z,98354.30
2022-07-29T10:35:45.059Z,98354.06
2022-07-29T10:39:22.449Z,98357.27
2022-07-29T10:42:34.113Z,98355.16
2022-07-29T10:45:37.790Z,98355.73
2022-07-29T10:49:10.483Z,98354.23
2022-07-29T10:52:14.526Z,98348.10
2022-07-29T10:55:39.456Z,98349.67
2022-07-29T10:59:21.785Z,98347.48
2022-07-29T11:02:42.053Z,98350.31
2022-07-29T11:05:59.948Z,98358.54
2022-07-29T11:09:34.849Z,98361.48
2022-07-29T11:12:40.410Z,98361.51
2022-07-29T11:15:59.375Z,98356.95
2022-07-29T11:19:11.573Z,98354.45
2022-07-29T11:22:36.827Z,98359.83
2022-07-29T11:26:07.770Z,98354.86
2022-07-29T11:29:23.068Z,98353.21
2022-07-29T11:32:39.951Z,98353.29
2022-07-29T11:35:43.051Z,98352.13
2022-07-29T11:39:36.968Z,98351.63
2022-07-29T11:42:44.498Z,98352.45
2022-07-29T11:45:48.153Z,98347.42
2022-07-29T11:48:52.156Z,98348.33
2022-07-29T11:51:59.293Z,98351.70
2022-07-29T11:55:09.910Z,98352.45
2022-07-29T11:58:13.374Z,98350.68
2022-07-29T12:01:18.541Z,98354.69
2022-07-29T12:04:21.613Z,98355.95
2022-07-29T12:07:32.669Z,98355.88
2022-07-29T12:10:38.876Z,98363.36
2022-07-29T12:13:41.897Z,98372.33
2022-07-29T12:16:44.986Z,98377.31
2022-07-29T12:19:48.016Z,98378.73
2022-07-29T12:22:55.540Z,98379.23
2022-07-29T12:26:01.310Z,98378.06
2022-07-29T12:29:11.418Z,98378.10
2022-07-29T12:32:20.171Z,98371.48
2022-07-29T12:35:23.992Z,98370.51
2022-07-29T12:38:27.518Z,98371.51
2022-07-29T12:41:30.916Z,98370.08
2022-07-29T12:44:50.668Z,98367.56
2022-07-29T12:47:54.328Z,98358.11
2022-07-29T12:51:02.392Z,98354.20
2022-07-29T12:54:16.999Z,98354.23
2022-07-29T12:57:20.531Z,98348.21
2022-07-29T13:00:25.522Z,98340.61
2022-07-29T13:03:28.685Z,98336.41
2022-07-29T13:06:49.655Z,98335.54
2022-07-29T13:09:54.306Z,98326.20
2022-07-29T13:13:05.201Z,98322.50
2022-07-29T13:16:09.213Z,98311.90
2022-07-29T13:19:13.257Z,98297.88
2022-07-29T13:22:21.076Z,98293.23
2022-07-29T13:25:33.304Z,98289.97
2022-07-29T13:28:36.754Z,98286.94
2022-07-29T13:31:40.198Z,98277.64
2022-07-29T13:34:43.397Z,98272.36
2022-07-29T13:37:47.120Z,98264.16
2022-07-29T13:40:50.331Z,98255.30
2022-07-29T13:43:53.838Z,98249.64
2022-07-29T13:46:57.103Z,98246.84
2022-07-29T13:50:05.332Z,98248.25
2022-07-29T13:53:09.995Z,98244.33
2022-07-29T13:56:20.684Z,98244.02
2022-07-29T13:59:23.746Z,98240.92
2022-07-29T14:02:27.642Z,98235.81
2022-07-29T14:05:31.163Z,98238.04
2022-07-29T14:09:12.053Z,98232.54
2022-07-29T14:12:15.152Z,98231.29
2022-07-29T14:15:18.333Z,98232.74
2022-07-29T14:18:21.547Z,98234.38
2022-07-29T14:21:24.841Z,98241.01
2022-07-29T14:24:28.107Z,98240.42
2022-07-29T14:27:38.353Z,98240.53
2022-07-29T14:30:41.633Z,98235.05
2022-07-29T14:33:46.241Z,98232.98
2022-07-29T14:36:52.322Z,98230.86
2022-07-29T14:40:02.103Z,98229.40
2022-07-29T14:43:05.351Z,98227.77
2022-07-29T14:46:08.961Z,98227.14
2022-07-29T14:49:12.562Z,98223.67
2022-07-29T14:52:15.601Z,98221.70
2022-07-29T14:55:19.755Z,98220.40
2022-07-29T14:58:23.764Z,98214.98
2022-07-29T15:01:26.822Z,98220.07
2022-07-29T15:04:29.830Z,98215.35
2022-07-29T15:07:32.915Z,98213.20
2022-07-29T15:10:36.127Z,98207.30
2022-07-29T15:13:39.827Z,98209.45
2022-07-29T15:16:43.958Z,98213.14
2022-07-29T15:19:49.967Z,98210.53
2022-07-29T15:22:52.867Z,98213.64
2022-07-29T15:25:55.788Z,98215.66
2022-07-29T15:28:58.681Z,98211.04
2022-07-29T15:32:02.703Z,98215.33
2022-07-29T15:35:06.143Z,98215.41
2022-07-29T15:38:09.430Z,98212.56
2022-07-29T15:41:15.313Z,98215.79
2022-07-29T15:44:18.993Z,98207.52
2022-07-29T15:47:21.940Z,98208.23
2022-07-29T15:50:24.853Z,98210.20
2022-07-29T15:53:27.844Z,98212.02
2022-07-29T15:56:31.989Z,98208.77
2022-07-29T15:59:35.438Z,98213.34
2022-07-29T16:02:38.354Z,98213.04
2022-07-29T16:05:41.331Z,98219.73
2022-07-29T16:08:44.255Z,98220.65
2022-07-29T16:11:48.901Z,98228.03
2022-07-29T16:14:52.154Z,98244.71
2022-07-29T16:17:55.659Z,98260.38
2022-07-29T16:20:59.454Z,98260.98
2022-07-29T16:24:02.998Z,98258.20
2022-07-29T16:27:06.466Z,98255.27
2022-07-29T16:30:10.038Z,98254.56
2022-07-29T16:33:12.905Z,98249.70
2022-07-29T16:36:18.716Z,98244.96
2022-07-29T16:39:21.705Z,98241.82
2022-07-29T16:42:44.286Z,98243.38
2022-07-29T16:45:47.753Z,98241.41
2022-07-29T16:48:50.827Z,98243.13
2022-07-29T16:51:53.982Z,98248.40
2022-07-29T16:54:56.904Z,98246.27
2022-07-29T16:58:00.843Z,98246.70
2022-07-29T17:01:04.052Z,98243.92
2022-07-29T17:04:07.095Z,98243.54
2022-07-29T17:07:10.055Z,98240.17
2022-07-29T17:10:13.119Z,98230.65
2022-07-29T17:13:16.003Z,98229.73
2022-07-29T17:16:23.544Z,98229.59
2022-07-29T17:19:27.647Z,98233.88
2022-07-29T17:22:30.561Z,98224.33
2022-07-29T17:25:33.667Z,98221.06
2022-07-29T17:28:36.628Z,98224.88
2022-07-29T17:31:39.605Z,98233.40
2022-07-29T17:34:43.244Z,98238.91
2022-07-29T17:37:46.700Z,98242.20
2022-07-29T17:40:50.485Z,98261.86
2022-07-29T17:43:54.320Z,98258.42
2022-07-29T17:46:57.409Z,98261.70
2022-07-29T17:50:00.586Z,98268.08
2022-07-29T17:54:17.269Z,98267.59
2022-07-29T17:57:20.158Z,98264.64
2022-07-29T18:00:24.838Z,98272.00
2022-07-29T18:03:27.915Z,98275.64
2022-07-29T18:06:30.832Z,98271.02
2022-07-29T18:09:33.840Z,98269.90
2022-07-29T18:12:36.732Z,98264.73
2022-07-29T18:15:40.574Z,98261.84
2022-07-29T18:18:47.350Z,98255.17
2022-07-29T18:21:54.681Z,98253.09
2022-07-29T18:24:59.072Z,98247.27
2022-07-29T18:28:01.994Z,98248.00
2022-07-29T18:31:05.980Z,98242.38
2022-07-29T18:34:08.910Z,98238.03
2022-07-29T18:37:11.790Z,98230.52
2022-07-29T18:40:15.091Z,98222.55
2022-07-29T18:43:20.436Z,98219.23
2022-07-29T18:46:23.453Z,98221.06
2022-07-29T18:49:29.121Z,98223.52
2022-07-29T18:52:33.460Z,98234.18
2022-07-29T18:55:36.540Z,98230.49
2022-07-29T18:58:40.120Z,98228.55
2022-07-29T19:01:44.341Z,98230.20
2022-07-29T19:04:49.911Z,98234.59
2022-07-29T19:07:54.941Z,98241.27
2022-07-29T19:10:58.194Z,98254.45
2022-07-29T19:14:01.529Z,98257.61
2022-07-29T19:17:04.531Z,98260.59
2022-07-29T19:20:08.156Z,98262.13
2022-07-29T19:23:12.099Z,98274.04
2022-07-29T19:26:20.341Z,98279.79
2022-07-29T19:29:25.416Z,98284.30
2022-07-29T19:32:28.673Z,98283.46
2022-07-29T19:35:31.761Z,98285.75
2022-07-29T19:38:38.242Z,98291.22
2022-07-29T19:41:41.507Z,98290.35
2022-07-29T19:44:44.535Z,98291.95
2022-07-29T19:47:48.421Z,98289.10
2022-07-29T19:52:19.276Z,98291.61
2022-07-29T19:55:23.569Z,98287.14
2022-07-29T19:58:27.133Z,98287.78
2022-07-29T20:01:32.243Z,98284.23
2022-07-29T20:04:35.555Z,98281.52
2022-07-29T20:07:39.628Z,98282.93
2022-07-29T20:10:43.215Z,98279.33
2022-07-29T20:13:46.389Z,98267.02
2022-07-29T20:16:50.516Z,98266.28
2022-07-29T20:19:53.626Z,98260.71
2022-07-29T20:22:57.337Z,98260.13
2022-07-29T20:26:00.409Z,98256.31
2022-07-29T20:29:05.516Z,98259.15
2022-07-29T20:32:12.078Z,98255.81
2022-07-29T20:35:15.141Z,98248.84
2022-07-29T20:38:18.525Z,98243.63
2022-07-29T20:41:22.168Z,98229.48
2022-07-29T20:44:25.073Z,98217.65
2022-07-29T20:47:28.015Z,98210.47
2022-07-29T20:50:31.033Z,98211.87
2022-07-29T20:53:34.165Z,98213.82
2022-07-29T20:56:37.095Z,98210.84
2022-07-29T20:59:44.056Z,98212.17
2022-07-29T21:02:48.686Z,98209.56
2022-07-29T21:05:52.018Z,98203.94
2022-07-29T21:08:57.903Z,98205.39
2022-07-29T21:12:02.176Z,98207.20
2022-07-29T21:15:08.432Z,98198.92
2022-07-29T21:18:26.971Z,98193.98
2022-07-29T21:21:29.873Z,98193.27
2022-07-29T21:24:32.781Z,98194.52
2022-07-29T21:27:54.626Z,98193.83
2022-07-29T21:31:00.166Z,98191.08
2022-07-29T21:34:03.213Z,98186.59
2022-07-29T21:37:06.063Z,98180.54
2022-07-29T21:40:10.778Z,98179.66
2022-07-29T21:43:13.979Z,98174.73
2022-07-29T21:46:18.184Z,98179.23
2022-07-29T21:49:21.172Z,98187.96
2022-07-29T21:52:24.069Z,98190.60
2022-07-29T21:55:27.817Z,98189.66
2022-07-29T21:58:32.189Z,98193.88
2022-07-29T22:01:39.061Z,98185.42
2022-07-29T22:04:42.577Z,98180.22
2022-07-29T22:07:54.220Z,98182.33
2022-07-29T22:10:58.219Z,98193.28
2022-07-29T22:14:01.178Z,98192.89
2022-07-29T22:17:04.389Z,98188.79
2022-07-29T22:20:08.025Z,98187.23
2022-07-29T22:23:10.893Z,98184.86
2022-07-29T22:26:13.848Z,98188.38
2022-07-29T22:29:17.809Z,98188.25
2022-07-29T22:32:20.768Z,98186.52
2022-07-29T22:35:23.729Z,98195.45
2022-07-29T22:38:26.621Z,98187.18
2022-07-29T22:41:29.506Z,98175.52
2022-07-29T22:44:32.449Z,98172.41
2022-07-29T22:47:45.869Z,98171.57
2022-07-29T22:50:51.693Z,98161.14
2022-07-29T22:53:54.808Z,98158.59
2022-07-29T22:56:57.799Z,98155.42
2022-07-29T23:00:02.371Z,98150.56
2022-07-29T23:03:05.356Z,98145.27
2022-07-29T23:06:08.264Z,98138.23
2022-07-29T23:09:11.154Z,98134.70
2022-07-29T23:12:14.034Z,98129.04
2022-07-29T23:15:17.007Z,98130.45
2022-07-29T23:18:21.080Z,98126.42
2022-07-29T23:21:24.624Z,98119.42
2022-07-29T23:24:27.608Z,98114.10
2022-07-29T23:27:30.524Z,98105.34
2022-07-29T23:30:33.459Z,98101.63
2022-07-29T23:33:36.390Z,98098.35
2022-07-29T23:36:39.426Z,98098.98
2022-07-29T23:39:42.388Z,98092.08
2022-07-29T23:42:46.078Z,98088.11
2022-07-29T23:45:49.069Z,98084.98
2022-07-29T23:48:52.107Z,98076.83
2022-07-29T23:51:55.000Z,98077.57
2022-07-29T23:55:37.846Z,98071.19
2022-07-29T23:58:21.006Z,98069.39
